sensor_id;sensor_type;location;lat;lon;timestamp;P1;durP1;ratioP1;P2;durP2;ratioP2
2173;SDS011;1093;51.424;11.764;2023-08-24T00:02:07;8.00;;;7.20;;
2173;SDS011;1093;51.424;11.764;2023-08-24T00:04:36;9.73;;;7.57;;
2173;SDS011;1093;51.424;11.764;2023-08-24T00:07:04;9.23;;;7.30;;
2173;SDS011;1093;51.424;11.764;2023-08-24T00:09:31;10.10;;;7.60;;
2173;SDS011;1093;51.424;11.764;2023-08-24T00:11:58;8.17;;;7.30;;
2173;SDS011;1093;51.424;11.764;2023-08-24T00:14:26;13.00;;;7.73;;
2173;SDS011;1093;51.424;11.764;2023-08-24T00:16:53;10.53;;;7.30;;
2173;SDS011;1093;51.424;11.764;2023-08-24T00:19:20;7.90;;;6.87;;
2173;SDS011;1093;51.424;11.764;2023-08-24T00:21:46;12.63;;;7.70;;
2173;SDS011;1093;51.424;11.764;2023-08-24T00:24:14;10.40;;;7.40;;
2173;SDS011;1093;51.424;11.764;2023-08-24T00:26:41;10.10;;;7.40;;
2173;SDS011;1093;51.424;11.764;2023-08-24T00:29:08;8.60;;;7.80;;
2173;SDS011;1093;51.424;11.764;2023-08-24T00:31:37;11.37;;;8.20;;
2173;SDS011;1093;51.424;11.764;2023-08-24T00:34:04;8.50;;;7.70;;
2173;SDS011;1093;51.424;11.764;2023-08-24T00:36:31;11.53;;;7.50;;
2173;SDS011;1093;51.424;11.764;2023-08-24T00:38:58;13.43;;;8.33;;
2173;SDS011;1093;51.424;11.764;2023-08-24T00:41:25;10.50;;;8.37;;
2173;SDS011;1093;51.424;11.764;2023-08-24T00:43:52;9.20;;;7.63;;
2173;SDS011;1093;51.424;11.764;2023-08-24T00:46:19;8.67;;;7.87;;
2173;SDS011;1093;51.424;11.764;2023-08-24T00:48:49;8.50;;;7.53;;
2173;SDS011;1093;51.424;11.764;2023-08-24T00:51:16;11.03;;;8.43;;
2173;SDS011;1093;51.424;11.764;2023-08-24T00:53:43;16.40;;;9.63;;
2173;SDS011;1093;51.424;11.764;2023-08-24T00:56:12;8.27;;;7.47;;
2173;SDS011;1093;51.424;11.764;2023-08-24T00:58:39;9.00;;;7.03;;
2173;SDS011;1093;51.424;11.764;2023-08-24T01:01:06;11.20;;;7.50;;
2173;SDS011;1093;51.424;11.764;2023-08-24T01:03:33;9.67;;;7.67;;
2173;SDS011;1093;51.424;11.764;2023-08-24T01:06:02;59.40;;;11.80;;
2173;SDS011;1093;51.424;11.764;2023-08-24T01:11:31;10.90;;;8.10;;
2173;SDS011;1093;51.424;11.764;2023-08-24T01:14:57;12.73;;;7.87;;
2173;SDS011;1093;51.424;11.764;2023-08-24T01:18:21;7.57;;;6.83;;
2173;SDS011;1093;51.424;11.764;2023-08-24T01:28:25;9.63;;;7.47;;
2173;SDS011;1093;51.424;11.764;2023-08-24T01:33:58;8.57;;;7.77;;
2173;SDS011;1093;51.424;11.764;2023-08-24T01:34:45;13.27;;;8.10;;
2173;SDS011;1093;51.424;11.764;2023-08-24T01:37:37;8.00;;;7.27;;
2173;SDS011;1093;51.424;11.764;2023-08-24T01:40:52;8.53;;;7.43;;
2173;SDS011;1093;51.424;11.764;2023-08-24T01:50:32;10.73;;;8.10;;
2173;SDS011;1093;51.424;11.764;2023-08-24T01:53:24;8.87;;;8.03;;
2173;SDS011;1093;51.424;11.764;2023-08-24T01:56:25;10.87;;;8.67;;
2173;SDS011;1093;51.424;11.764;2023-08-24T01:59:07;9.30;;;8.50;;
2173;SDS011;1093;51.424;11.764;2023-08-24T02:08:18;8.43;;;7.60;;
2173;SDS011;1093;51.424;11.764;2023-08-24T02:11:13;8.73;;;7.93;;
2173;SDS011;1093;51.424;11.764;2023-08-24T02:13:49;9.70;;;8.80;;
2173;SDS011;1093;51.424;11.764;2023-08-24T02:16:41;10.60;;;7.90;;
2173;SDS011;1093;51.424;11.764;2023-08-24T02:19:23;8.57;;;7.77;;
2173;SDS011;1093;51.424;11.764;2023-08-24T02:21:59;10.97;;;8.00;;
2173;SDS011;1093;51.424;11.764;2023-08-24T02:24:41;7.90;;;7.10;;
2173;SDS011;1093;51.424;11.764;2023-08-24T02:34:17;8.00;;;7.10;;
2173;SDS011;1093;51.424;11.764;2023-08-24T02:37:04;15.93;;;8.17;;
2173;SDS011;1093;51.424;11.764;2023-08-24T02:39:52;8.87;;;7.97;;
2173;SDS011;1093;51.424;11.764;2023-08-24T02:42:22;11.50;;;8.83;;
2173;SDS011;1093;51.424;11.764;2023-08-24T02:45:18;12.07;;;8.67;;
2173;SDS011;1093;51.424;11.764;2023-08-24T02:48:16;8.70;;;7.90;;
2173;SDS011;1093;51.424;11.764;2023-08-24T02:51:02;9.80;;;7.87;;
2173;SDS011;1093;51.424;11.764;2023-08-24T02:53:57;9.43;;;7.80;;
2173;SDS011;1093;51.424;11.764;2023-08-24T02:56:52;10.00;;;9.00;;
2173;SDS011;1093;51.424;11.764;2023-08-24T02:59:28;14.03;;;9.10;;
2173;SDS011;1093;51.424;11.764;2023-08-24T03:02:14;14.70;;;9.07;;
2173;SDS011;1093;51.424;11.764;2023-08-24T03:04:58;9.93;;;9.00;;
2173;SDS011;1093;51.424;11.764;2023-08-24T03:07:53;9.87;;;8.50;;
2173;SDS011;1093;51.424;11.764;2023-08-24T03:11:09;10.27;;;9.27;;
2173;SDS011;1093;51.424;11.764;2023-08-24T03:15:14;10.50;;;9.50;;
2173;SDS011;1093;51.424;11.764;2023-08-24T03:16:59;10.00;;;9.20;;
2173;SDS011;1093;51.424;11.764;2023-08-24T03:19:32;12.57;;;9.43;;
2173;SDS011;1093;51.424;11.764;2023-08-24T03:22:13;15.67;;;10.30;;
2173;SDS011;1093;51.424;11.764;2023-08-24T03:25:28;11.80;;;9.20;;
2173;SDS011;1093;51.424;11.764;2023-08-24T03:34:33;15.10;;;9.80;;
2173;SDS011;1093;51.424;11.764;2023-08-24T03:37:17;12.17;;;10.87;;
2173;SDS011;1093;51.424;11.764;2023-08-24T03:40:17;13.20;;;10.13;;
2173;SDS011;1093;51.424;11.764;2023-08-24T03:46:46;11.77;;;10.57;;
2173;SDS011;1093;51.424;11.764;2023-08-24T03:53:22;13.53;;;11.97;;
2173;SDS011;1093;51.424;11.764;2023-08-24T03:56:29;14.20;;;11.20;;
2173;SDS011;1093;51.424;11.764;2023-08-24T04:02:45;11.87;;;10.73;;
2173;SDS011;1093;51.424;11.764;2023-08-24T04:05:45;13.70;;;11.63;;
2173;SDS011;1093;51.424;11.764;2023-08-24T04:08:50;13.63;;;10.30;;
2173;SDS011;1093;51.424;11.764;2023-08-24T04:12:00;14.27;;;11.63;;
2173;SDS011;1093;51.424;11.764;2023-08-24T04:15:15;13.43;;;12.10;;
2173;SDS011;1093;51.424;11.764;2023-08-24T04:17:57;16.30;;;12.07;;
2173;SDS011;1093;51.424;11.764;2023-08-24T04:21:06;13.90;;;12.40;;
2173;SDS011;1093;51.424;11.764;2023-08-24T04:24:09;15.53;;;12.10;;
2173;SDS011;1093;51.424;11.764;2023-08-24T04:27:21;20.27;;;12.47;;
2173;SDS011;1093;51.424;11.764;2023-08-24T04:29:55;13.70;;;12.40;;
2173;SDS011;1093;51.424;11.764;2023-08-24T04:32:59;13.50;;;11.07;;
2173;SDS011;1093;51.424;11.764;2023-08-24T04:35:33;13.93;;;10.10;;
2173;SDS011;1093;51.424;11.764;2023-08-24T04:38:35;14.30;;;10.00;;
2173;SDS011;1093;51.424;11.764;2023-08-24T04:48:25;15.67;;;10.63;;
2173;SDS011;1093;51.424;11.764;2023-08-24T05:07:31;11.57;;;10.43;;
2173;SDS011;1093;51.424;11.764;2023-08-24T05:10:32;12.20;;;11.03;;
2173;SDS011;1093;51.424;11.764;2023-08-24T05:13:23;12.73;;;11.53;;
2173;SDS011;1093;51.424;11.764;2023-08-24T05:16:33;13.30;;;12.00;;
2173;SDS011;1093;51.424;11.764;2023-08-24T05:19:36;13.60;;;12.20;;
2173;SDS011;1093;51.424;11.764;2023-08-24T05:25:42;22.00;;;13.83;;
2173;SDS011;1093;51.424;11.764;2023-08-24T05:31:37;13.80;;;11.40;;
2173;SDS011;1093;51.424;11.764;2023-08-24T05:34:35;19.00;;;14.03;;
2173;SDS011;1093;51.424;11.764;2023-08-24T05:37:40;14.80;;;13.03;;
2173;SDS011;1093;51.424;11.764;2023-08-24T05:44:04;21.60;;;15.70;;
2173;SDS011;1093;51.424;11.764;2023-08-24T05:46:55;17.47;;;15.67;;
2173;SDS011;1093;51.424;11.764;2023-08-24T05:50:16;17.43;;;15.50;;
2173;SDS011;1093;51.424;11.764;2023-08-24T05:56:18;21.30;;;15.47;;
2173;SDS011;1093;51.424;11.764;2023-08-24T06:16:12;15.83;;;14.20;;
2173;SDS011;1093;51.424;11.764;2023-08-24T06:18:50;18.17;;;12.87;;
2173;SDS011;1093;51.424;11.764;2023-08-24T06:21:35;15.40;;;13.67;;
2173;SDS011;1093;51.424;11.764;2023-08-24T06:24:41;14.87;;;13.37;;
2173;SDS011;1093;51.424;11.764;2023-08-24T06:37:20;20.63;;;13.13;;
2173;SDS011;1093;51.424;11.764;2023-08-24T06:43:10;14.70;;;12.33;;
2173;SDS011;1093;51.424;11.764;2023-08-24T06:45:49;15.03;;;12.63;;
2173;SDS011;1093;51.424;11.764;2023-08-24T06:49:16;18.97;;;12.47;;
2173;SDS011;1093;51.424;11.764;2023-08-24T06:57:57;13.47;;;9.83;;
2173;SDS011;1093;51.424;11.764;2023-08-24T07:00:35;14.33;;;10.70;;
2173;SDS011;1093;51.424;11.764;2023-08-24T07:03:18;11.77;;;10.10;;
2173;SDS011;1093;51.424;11.764;2023-08-24T07:05:54;12.63;;;10.33;;
2173;SDS011;1093;51.424;11.764;2023-08-24T07:08:35;14.07;;;10.80;;
2173;SDS011;1093;51.424;11.764;2023-08-24T07:14:51;10.27;;;9.17;;
2173;SDS011;1093;51.424;11.764;2023-08-24T07:17:53;13.33;;;7.60;;
2173;SDS011;1093;51.424;11.764;2023-08-24T07:24:12;12.63;;;7.47;;
2173;SDS011;1093;51.424;11.764;2023-08-24T07:33:13;12.37;;;7.47;;
2173;SDS011;1093;51.424;11.764;2023-08-24T07:35:49;11.60;;;6.27;;
2173;SDS011;1093;51.424;11.764;2023-08-24T07:38:33;9.03;;;5.83;;
2173;SDS011;1093;51.424;11.764;2023-08-24T07:41:37;8.87;;;5.77;;
2173;SDS011;1093;51.424;11.764;2023-08-24T07:44:12;7.17;;;5.40;;
2173;SDS011;1093;51.424;11.764;2023-08-24T07:46:53;9.33;;;5.13;;
2173;SDS011;1093;51.424;11.764;2023-08-24T07:50:10;8.80;;;6.13;;
2173;SDS011;1093;51.424;11.764;2023-08-24T07:56:59;7.03;;;5.33;;
2173;SDS011;1093;51.424;11.764;2023-08-24T07:59:48;11.20;;;5.47;;
2173;SDS011;1093;51.424;11.764;2023-08-24T08:03:06;5.80;;;5.03;;
2173;SDS011;1093;51.424;11.764;2023-08-24T08:05:50;7.70;;;5.10;;
2173;SDS011;1093;51.424;11.764;2023-08-24T08:08:24;8.50;;;4.97;;
2173;SDS011;1093;51.424;11.764;2023-08-24T08:10:58;7.27;;;4.90;;
2173;SDS011;1093;51.424;11.764;2023-08-24T08:13:41;10.00;;;5.40;;
2173;SDS011;1093;51.424;11.764;2023-08-24T08:16:28;5.43;;;4.93;;
2173;SDS011;1093;51.424;11.764;2023-08-24T08:19:07;7.43;;;5.60;;
2173;SDS011;1093;51.424;11.764;2023-08-24T08:21:53;7.27;;;4.33;;
2173;SDS011;1093;51.424;11.764;2023-08-24T08:24:38;5.80;;;5.00;;
2173;SDS011;1093;51.424;11.764;2023-08-24T08:27:21;5.40;;;4.90;;
2173;SDS011;1093;51.424;11.764;2023-08-24T08:29:54;6.10;;;4.73;;
2173;SDS011;1093;51.424;11.764;2023-08-24T08:33:59;6.60;;;5.40;;
2173;SDS011;1093;51.424;11.764;2023-08-24T08:38:59;7.27;;;5.60;;
2173;SDS011;1093;51.424;11.764;2023-08-24T08:41:52;7.93;;;5.00;;
2173;SDS011;1093;51.424;11.764;2023-08-24T08:44:35;6.00;;;5.47;;
2173;SDS011;1093;51.424;11.764;2023-08-24T08:50:37;8.03;;;5.07;;
2173;SDS011;1093;51.424;11.764;2023-08-24T08:53:24;6.50;;;4.87;;
2173;SDS011;1093;51.424;11.764;2023-08-24T08:59:08;6.43;;;4.70;;
2173;SDS011;1093;51.424;11.764;2023-08-24T09:05:22;9.43;;;4.40;;
2173;SDS011;1093;51.424;11.764;2023-08-24T09:08:32;7.17;;;4.77;;
2173;SDS011;1093;51.424;11.764;2023-08-24T09:11:49;8.90;;;4.90;;
2173;SDS011;1093;51.424;11.764;2023-08-24T09:21:41;6.70;;;5.00;;
2173;SDS011;1093;51.424;11.764;2023-08-24T09:24:14;5.07;;;4.40;;
2173;SDS011;1093;51.424;11.764;2023-08-24T09:26:59;12.77;;;5.37;;
2173;SDS011;1093;51.424;11.764;2023-08-24T09:39:21;7.03;;;5.40;;
2173;SDS011;1093;51.424;11.764;2023-08-24T09:44:55;4.47;;;4.07;;
2173;SDS011;1093;51.424;11.764;2023-08-24T09:51:23;6.47;;;4.60;;
2173;SDS011;1093;51.424;11.764;2023-08-24T09:58:00;6.40;;;4.87;;
2173;SDS011;1093;51.424;11.764;2023-08-24T10:00:53;8.27;;;4.47;;
2173;SDS011;1093;51.424;11.764;2023-08-24T10:03:45;11.63;;;6.07;;
2173;SDS011;1093;51.424;11.764;2023-08-24T10:07:08;4.90;;;4.40;;
2173;SDS011;1093;51.424;11.764;2023-08-24T10:10:03;6.67;;;4.43;;
2173;SDS011;1093;51.424;11.764;2023-08-24T10:16:38;5.47;;;4.40;;
2173;SDS011;1093;51.424;11.764;2023-08-24T10:23:20;4.10;;;3.70;;
2173;SDS011;1093;51.424;11.764;2023-08-24T10:26:26;7.73;;;3.60;;
2173;SDS011;1093;51.424;11.764;2023-08-24T10:29:20;7.27;;;4.87;;
2173;SDS011;1093;51.424;11.764;2023-08-24T10:36:26;7.63;;;4.40;;
2173;SDS011;1093;51.424;11.764;2023-08-24T10:52:06;7.07;;;3.70;;
2173;SDS011;1093;51.424;11.764;2023-08-24T10:58:17;4.47;;;4.10;;
2173;SDS011;1093;51.424;11.764;2023-08-24T11:04:31;4.77;;;3.57;;
2173;SDS011;1093;51.424;11.764;2023-08-24T11:14:20;5.07;;;4.00;;
2173;SDS011;1093;51.424;11.764;2023-08-24T11:17:24;5.23;;;3.90;;
2173;SDS011;1093;51.424;11.764;2023-08-24T11:20:14;4.00;;;3.70;;
2173;SDS011;1093;51.424;11.764;2023-08-24T11:23:02;4.07;;;3.30;;
2173;SDS011;1093;51.424;11.764;2023-08-24T11:26:13;6.43;;;4.73;;
2173;SDS011;1093;51.424;11.764;2023-08-24T11:29:32;6.37;;;3.17;;
2173;SDS011;1093;51.424;11.764;2023-08-24T11:34:58;5.20;;;3.60;;
2173;SDS011;1093;51.424;11.764;2023-08-24T11:36:07;3.70;;;3.40;;
2173;SDS011;1093;51.424;11.764;2023-08-24T11:41:40;7.00;;;3.67;;
2173;SDS011;1093;51.424;11.764;2023-08-24T11:54:56;7.27;;;4.30;;
2173;SDS011;1093;51.424;11.764;2023-08-24T11:57:37;6.87;;;3.50;;
2173;SDS011;1093;51.424;11.764;2023-08-24T12:07:23;4.83;;;3.40;;
2173;SDS011;1093;51.424;11.764;2023-08-24T12:17:44;5.20;;;3.40;;
2173;SDS011;1093;51.424;11.764;2023-08-24T12:20:53;5.83;;;3.13;;
2173;SDS011;1093;51.424;11.764;2023-08-24T12:24:14;5.13;;;3.30;;
2173;SDS011;1093;51.424;11.764;2023-08-24T12:29:47;4.97;;;3.90;;
2173;SDS011;1093;51.424;11.764;2023-08-24T12:32:21;5.47;;;3.10;;
2173;SDS011;1093;51.424;11.764;2023-08-24T13:50:31;6.20;;;3.87;;
2173;SDS011;1093;51.424;11.764;2023-08-24T13:53:19;4.60;;;3.43;;
2173;SDS011;1093;51.424;11.764;2023-08-24T15:57:04;5.93;;;3.90;;
2173;SDS011;1093;51.424;11.764;2023-08-24T16:00:27;10.60;;;5.20;;
2173;SDS011;1093;51.424;11.764;2023-08-24T21:06:08;14.83;;;10.60;;
2173;SDS011;1093;51.424;11.764;2023-08-24T21:08:35;14.33;;;10.93;;
2173;SDS011;1093;51.424;11.764;2023-08-24T21:11:01;15.37;;;9.77;;
2173;SDS011;1093;51.424;11.764;2023-08-24T21:13:28;12.63;;;9.60;;
2173;SDS011;1093;51.424;11.764;2023-08-24T21:15:57;9.77;;;8.67;;
2173;SDS011;1093;51.424;11.764;2023-08-24T21:18:25;16.27;;;10.10;;
2173;SDS011;1093;51.424;11.764;2023-08-24T21:20:55;12.47;;;11.27;;
2173;SDS011;1093;51.424;11.764;2023-08-24T21:23:23;12.70;;;11.47;;
2173;SDS011;1093;51.424;11.764;2023-08-24T21:25:50;12.33;;;11.07;;
2173;SDS011;1093;51.424;11.764;2023-08-24T21:28:17;13.20;;;11.63;;
2173;SDS011;1093;51.424;11.764;2023-08-24T21:30:44;12.07;;;10.83;;
2173;SDS011;1093;51.424;11.764;2023-08-24T21:33:11;13.60;;;12.30;;
2173;SDS011;1093;51.424;11.764;2023-08-24T21:35:38;13.93;;;12.63;;
2173;SDS011;1093;51.424;11.764;2023-08-24T21:38:04;13.47;;;12.23;;
2173;SDS011;1093;51.424;11.764;2023-08-24T21:40:33;15.50;;;11.73;;
2173;SDS011;1093;51.424;11.764;2023-08-24T21:43:04;13.13;;;11.13;;
2173;SDS011;1093;51.424;11.764;2023-08-24T21:45:30;14.43;;;12.00;;
2173;SDS011;1093;51.424;11.764;2023-08-24T21:47:57;14.17;;;12.60;;
2173;SDS011;1093;51.424;11.764;2023-08-24T21:50:26;13.97;;;11.47;;
2173;SDS011;1093;51.424;11.764;2023-08-24T21:52:55;13.73;;;11.70;;
2173;SDS011;1093;51.424;11.764;2023-08-24T21:55:22;14.70;;;13.33;;
2173;SDS011;1093;51.424;11.764;2023-08-24T21:57:51;12.37;;;11.17;;
2173;SDS011;1093;51.424;11.764;2023-08-24T22:00:20;13.77;;;11.97;;
2173;SDS011;1093;51.424;11.764;2023-08-24T22:02:47;17.07;;;12.63;;
2173;SDS011;1093;51.424;11.764;2023-08-24T22:05:14;13.10;;;11.70;;
2173;SDS011;1093;51.424;11.764;2023-08-24T22:07:41;12.77;;;11.40;;
2173;SDS011;1093;51.424;11.764;2023-08-24T22:10:07;18.90;;;12.20;;
2173;SDS011;1093;51.424;11.764;2023-08-24T22:12:35;12.50;;;11.33;;
2173;SDS011;1093;51.424;11.764;2023-08-24T22:15:03;13.30;;;12.10;;
2173;SDS011;1093;51.424;11.764;2023-08-24T22:17:32;14.27;;;11.23;;
2173;SDS011;1093;51.424;11.764;2023-08-24T22:19:58;13.60;;;11.70;;
2173;SDS011;1093;51.424;11.764;2023-08-24T22:22:27;17.33;;;11.80;;
2173;SDS011;1093;51.424;11.764;2023-08-24T22:24:54;13.20;;;11.93;;
2173;SDS011;1093;51.424;11.764;2023-08-24T22:27:21;13.63;;;12.23;;
2173;SDS011;1093;51.424;11.764;2023-08-24T22:29:48;16.93;;;13.90;;
2173;SDS011;1093;51.424;11.764;2023-08-24T22:32:16;16.60;;;12.80;;
2173;SDS011;1093;51.424;11.764;2023-08-24T22:34:43;16.13;;;12.40;;
2173;SDS011;1093;51.424;11.764;2023-08-24T22:37:10;15.90;;;12.20;;
2173;SDS011;1093;51.424;11.764;2023-08-24T22:39:37;14.03;;;12.10;;
2173;SDS011;1093;51.424;11.764;2023-08-24T22:42:04;16.73;;;12.40;;
2173;SDS011;1093;51.424;11.764;2023-08-24T22:44:31;14.30;;;12.10;;
2173;SDS011;1093;51.424;11.764;2023-08-24T22:46:58;13.80;;;11.47;;
2173;SDS011;1093;51.424;11.764;2023-08-24T22:49:26;15.30;;;12.73;;
2173;SDS011;1093;51.424;11.764;2023-08-24T22:51:53;13.57;;;12.33;;
2173;SDS011;1093;51.424;11.764;2023-08-24T22:54:20;12.77;;;11.50;;
2173;SDS011;1093;51.424;11.764;2023-08-24T22:56:47;14.17;;;11.73;;
2173;SDS011;1093;51.424;11.764;2023-08-24T22:59:14;14.60;;;13.10;;
2173;SDS011;1093;51.424;11.764;2023-08-24T23:01:41;15.03;;;11.40;;
2173;SDS011;1093;51.424;11.764;2023-08-24T23:04:08;17.50;;;12.27;;
2173;SDS011;1093;51.424;11.764;2023-08-24T23:06:46;15.53;;;11.50;;
2173;SDS011;1093;51.424;11.764;2023-08-24T23:09:13;11.77;;;10.60;;
2173;SDS011;1093;51.424;11.764;2023-08-24T23:11:41;11.57;;;10.30;;
2173;SDS011;1093;51.424;11.764;2023-08-24T23:14:09;10.63;;;9.63;;
2173;SDS011;1093;51.424;11.764;2023-08-24T23:16:37;12.00;;;10.70;;
2173;SDS011;1093;51.424;11.764;2023-08-24T23:19:04;19.60;;;12.87;;
2173;SDS011;1093;51.424;11.764;2023-08-24T23:21:31;14.63;;;12.60;;
2173;SDS011;1093;51.424;11.764;2023-08-24T23:23:59;13.73;;;12.50;;
2173;SDS011;1093;51.424;11.764;2023-08-24T23:26:27;13.73;;;11.63;;
2173;SDS011;1093;51.424;11.764;2023-08-24T23:28:55;15.17;;;13.40;;
2173;SDS011;1093;51.424;11.764;2023-08-24T23:31:21;17.53;;;12.70;;
2173;SDS011;1093;51.424;11.764;2023-08-24T23:33:48;14.73;;;12.27;;
2173;SDS011;1093;51.424;11.764;2023-08-24T23:36:15;12.73;;;11.47;;
2173;SDS011;1093;51.424;11.764;2023-08-24T23:38:42;14.27;;;12.20;;
2173;SDS011;1093;51.424;11.764;2023-08-24T23:41:10;13.30;;;12.03;;
2173;SDS011;1093;51.424;11.764;2023-08-24T23:43:37;18.67;;;13.80;;
2173;SDS011;1093;51.424;11.764;2023-08-24T23:46:04;13.53;;;12.13;;
2173;SDS011;1093;51.424;11.764;2023-08-24T23:48:30;13.97;;;12.67;;
2173;SDS011;1093;51.424;11.764;2023-08-24T23:50:58;15.57;;;14.27;;
2173;SDS011;1093;51.424;11.764;2023-08-24T23:53:26;14.37;;;12.40;;
2173;SDS011;1093;51.424;11.764;2023-08-24T23:55:53;17.63;;;13.67;;
2173;SDS011;1093;51.424;11.764;2023-08-24T23:58:21;11.37;;;10.17;;
